Time;durP1;ratioP1;P1;durP2;ratioP2;P2;SDS_P1;SDS_P2;PMS_P1;PMS_P2;Temp;Humidity;BMP_temperature;BMP_pressure;BME280_temperature;BME280_humidity;BME280_pressure;Samples;Min_cycle;Max_cycle;Signal;HPM_P1;HPM_P2
2023/12/26 00:01:41;;;;;;;;;;;;;;;;;;5070844;28;19924;-72
2023/12/26 00:04:08;;;;;;;;;;;;;;;;;;5078202;28;19936;-73
2023/12/26 00:06:35;;;;;;;;;;;;;;;;;;5079247;28;19931;-72
2023/12/26 00:09:02;;;;;;;;;;;;;;;;;;5076771;28;20314;-72
2023/12/26 00:11:30;;;;;;;;;;;;;;;;;;5069981;28;19925;-72
2023/12/26 00:13:57;;;;;;;;;;;;;;;;;;5070749;28;19939;-71
2023/12/26 00:16:24;;;;;;;;;;;;;;;;;;5069800;28;19940;-72
2023/12/26 00:18:51;;;;;;;;;;;;;;;;;;5072289;28;19931;-72
2023/12/26 00:21:18;;;;;;;;;;;;;;;;;;5069004;28;19924;-72
2023/12/26 00:23:45;;;;;;;;;;;;;;;;;;5072073;28;19977;-72
2023/12/26 00:26:12;;;;;;;;;;;;;;;;;;5071237;28;20337;-72
2023/12/26 00:28:39;;;;;;;;;;;;;;;;;;5072227;28;20321;-72
2023/12/26 00:31:06;;;;;;;;;;;;;;;;;;5074726;28;20205;-72
2023/12/26 00:33:33;;;;;;;;;;;;;;;;;;5073680;28;19925;-72
2023/12/26 00:36:01;;;;;;;;;;;;;;;;;;5075437;28;19924;-72
2023/12/26 00:38:28;;;;;;;;;;;;;;;;;;5073676;28;19931;-71
2023/12/26 00:40:55;;;;;;;;;;;;;;;;;;5079380;28;19932;-72
2023/12/26 00:43:22;;;;;;;;;;;;;;;;;;5081632;28;19924;-72
2023/12/26 00:45:49;;;;;;;;;;;;;;;;;;5075439;28;19931;-72
2023/12/26 00:48:17;;;;;;;;;;;;;;;;;;5088083;28;20236;-72
2023/12/26 00:50:44;;;;;;;;;;;;;;;;;;5076979;28;20371;-72
2023/12/26 00:53:11;;;;;;;;;;;;;;;;;;5069223;28;19924;-72
2023/12/26 00:55:38;;;;;;;;;;;;;;;;;;5074061;28;19935;-72
2023/12/26 00:58:05;;;;;;;;;;;;;;;;;;5068320;28;19939;-72
2023/12/26 01:00:32;;;;;;;;;;;;;;;;;;5075182;28;19978;-71
2023/12/26 01:02:59;;;;;;;;;;;;;;;;;;5074612;28;19931;-70
2023/12/26 01:05:26;;;;;;;;;;;;;;;;;;5075647;28;19963;-71
2023/12/26 01:07:54;;;;;;;;;;;;;;;;;;5072459;28;19963;-72
2023/12/26 01:10:21;;;;;;;;;;;;;;;;;;5073538;28;19952;-72
2023/12/26 01:12:48;;;;;;;;;;;;;;;;;;5072666;28;19933;-72
2023/12/26 01:15:15;;;;;;;;;;;;;;;;;;5075714;28;19925;-72
2023/12/26 01:17:42;;;;;;;;;;;;;;;;;;5071856;28;19947;-72
2023/12/26 01:20:09;;;;;;;;;;;;;;;;;;5072804;28;19931;-72
2023/12/26 01:22:36;;;;;;;;;;;;;;;;;;5072691;28;19932;-72
2023/12/26 01:25:05;;;;;;;;;;;;;;;;;;5071807;28;19977;-71
2023/12/26 01:27:33;;;;;;;;;;;;;;;;;;5072028;28;20490;-72
2023/12/26 01:30:01;;;;;;;;;;;;;;;;;;5077139;28;20432;-71
2023/12/26 01:32:28;;;;;;;;;;;;;;;;;;5073991;28;19928;-72
2023/12/26 01:34:55;;;;;;;;;;;;;;;;;;5079865;28;19933;-72
2023/12/26 01:37:22;;;;;;;;;;;;;;;;;;5072243;28;19986;-72
2023/12/26 01:39:49;;;;;;;;;;;;;;;;;;5072704;28;19990;-72
2023/12/26 01:42:17;;;;;;;;;;;;;;;;;;5075088;28;20402;-70
2023/12/26 01:44:44;;;;;;;;;;;;;;;;;;5082302;28;20366;-71
2023/12/26 01:47:11;;;;;;;;;;;;;;;;;;5071177;28;20041;-71
2023/12/26 01:49:38;;;;;;;;;;;;;;;;;;5073710;28;20365;-71
2023/12/26 01:52:05;;;;;;;;;;;;;;;;;;5072143;28;20371;-71
2023/12/26 01:54:32;;;;;;;;;;;;;;;;;;5073131;28;19931;-71
2023/12/26 01:56:59;;;;;;;;;;;;;;;;;;5070097;28;19950;-71
2023/12/26 01:59:26;;;;;;;;;;;;;;;;;;5067884;28;19951;-71
2023/12/26 02:01:53;;;;;;;;;;;;;;;;;;5073313;28;19932;-71
2023/12/26 02:04:20;;;;;;;;;;;;;;;;;;5069584;28;19970;-71
2023/12/26 02:06:47;;;;;;;;;;;;;;;;;;5072821;28;19931;-71
2023/12/26 02:09:15;;;;;;;;;;;;;;;;;;5066579;28;19978;-71
2023/12/26 02:11:42;;;;;;;;;;;;;;;;;;5071013;28;20031;-71
2023/12/26 02:14:10;;;;;;;;;;;;;;;;;;5069507;28;19925;-71
2023/12/26 02:16:37;;;;;;;;;;;;;;;;;;5071426;28;20446;-71
2023/12/26 02:19:04;;;;;;;;;;;;;;;;;;5072882;28;19925;-72
2023/12/26 02:21:32;;;;;;;;;;;;;;;;;;5074890;28;19928;-72
2023/12/26 02:23:59;;;;;;;;;;;;;;;;;;5076898;28;19931;-73
2023/12/26 02:26:26;;;;;;;;;;;;;;;;;;5066677;28;19925;-72
2023/12/26 02:28:53;;;;;;;;;;;;;;;;;;5072294;28;19970;-72
2023/12/26 02:31:20;;;;;;;;;;;;;;;;;;5061180;28;19932;-73
2023/12/26 02:33:47;;;;;;;;;;;;;;;;;;5062290;28;19932;-73
2023/12/26 02:36:14;;;;;;;;;;;;;;;;;;5073064;28;19973;-70
2023/12/26 02:38:41;;;;;;;;;;;;;;;;;;5072681;28;19978;-71
2023/12/26 02:41:08;;;;;;;;;;;;;;;;;;5073087;28;19978;-71
2023/12/26 02:43:36;;;;;;;;;;;;;;;;;;5069882;28;19931;-71
2023/12/26 02:46:03;;;;;;;;;;;;;;;;;;5071094;28;19924;-71
2023/12/26 02:48:30;;;;;;;;;;;;;;;;;;5070615;28;19928;-72
2023/12/26 02:50:57;;;;;;;;;;;;;;;;;;5071772;28;19931;-71
2023/12/26 02:53:24;;;;;;;;;;;;;;;;;;5068623;28;19925;-71
2023/12/26 02:55:52;;;;;;;;;;;;;;;;;;5069718;28;19974;-71
2023/12/26 02:58:19;;;;;;;;;;;;;;;;;;5073161;28;19925;-71
2023/12/26 03:00:46;;;;;;;;;;;;;;;;;;5063216;28;19933;-71
2023/12/26 03:03:13;;;;;;;;;;;;;;;;;;5068796;28;19985;-71
2023/12/26 03:05:40;;;;;;;;;;;;;;;;;;5066780;28;19925;-71
2023/12/26 03:08:07;;;;;;;;;;;;;;;;;;5071022;28;19929;-71
2023/12/26 03:10:34;;;;;;;;;;;;;;;;;;5070112;28;19925;-71
2023/12/26 03:13:01;;;;;;;;;;;;;;;;;;5074518;28;19932;-71
2023/12/26 03:15:28;;;;;;;;;;;;;;;;;;5079833;28;19932;-72
2023/12/26 03:17:55;;;;;;;;;;;;;;;;;;5072860;28;19928;-72
2023/12/26 03:20:22;;;;;;;;;;;;;;;;;;5071702;28;19925;-71
2023/12/26 03:22:49;;;;;;;;;;;;;;;;;;5070945;28;19936;-72
2023/12/26 03:25:16;;;;;;;;;;;;;;;;;;5071525;28;19978;-72
2023/12/26 03:27:43;;;;;;;;;;;;;;;;;;5069726;28;19924;-72
2023/12/26 03:30:11;;;;;;;;;;;;;;;;;;5067071;28;19943;-72
2023/12/26 03:32:38;;;;;;;;;;;;;;;;;;5073914;28;19932;-73
2023/12/26 03:35:06;;;;;;;;;;;;;;;;;;5063966;28;19925;-72
2023/12/26 03:37:33;;;;;;;;;;;;;;;;;;5069586;28;19978;-72
2023/12/26 03:40:00;;;;;;;;;;;;;;;;;;5071274;28;19928;-72
2023/12/26 03:42:27;;;;;;;;;;;;;;;;;;5069101;28;20089;-72
2023/12/26 03:44:54;;;;;;;;;;;;;;;;;;5071094;28;20408;-72
2023/12/26 03:47:21;;;;;;;;;;;;;;;;;;5073109;28;19947;-72
2023/12/26 03:49:48;;;;;;;;;;;;;;;;;;5078427;28;20387;-72
2023/12/26 03:52:15;;;;;;;;;;;;;;;;;;5079552;28;19970;-72
2023/12/26 03:54:41;;;;;;;;;;;;;;;;;;5078010;28;19928;-72
2023/12/26 03:57:08;;;;;;;;;;;;;;;;;;5071866;28;20022;-72
2023/12/26 03:59:35;;;;;;;;;;;;;;;;;;5070753;28;19936;-72
2023/12/26 04:02:02;;;;;;;;;;;;;;;;;;5073296;28;19932;-72
2023/12/26 04:04:29;;;;;;;;;;;;;;;;;;5071381;28;19955;-73
2023/12/26 04:06:57;;;;;;;;;;;;;;;;;;5074364;28;19929;-72
2023/12/26 04:09:24;;;;;;;;;;;;;;;;;;5071508;28;19931;-72
2023/12/26 04:11:51;;;;;;;;;;;;;;;;;;5067030;28;19932;-72
2023/12/26 04:14:18;;;;;;;;;;;;;;;;;;5071576;28;19932;-73
2023/12/26 04:16:45;;;;;;;;;;;;;;;;;;5079202;28;19925;-73
2023/12/26 04:19:12;;;;;;;;;;;;;;;;;;5070290;28;19929;-73
2023/12/26 04:21:39;;;;;;;;;;;;;;;;;;5071583;28;19931;-73
2023/12/26 04:24:05;;;;;;;;;;;;;;;;;;5071042;28;19924;-72
2023/12/26 04:26:32;;;;;;;;;;;;;;;;;;5070802;28;19924;-72
2023/12/26 04:28:59;;;;;;;;;;;;;;;;;;5069608;28;19977;-72
2023/12/26 04:31:26;;;;;;;;;;;;;;;;;;5079250;28;19929;-72
2023/12/26 04:33:53;;;;;;;;;;;;;;;;;;5069868;28;19929;-71
2023/12/26 04:36:20;;;;;;;;;;;;;;;;;;5076336;28;19929;-72
2023/12/26 04:38:47;;;;;;;;;;;;;;;;;;5069591;28;19928;-71
2023/12/26 04:41:15;;;;;;;;;;;;;;;;;;5068964;28;19970;-71
2023/12/26 04:43:42;;;;;;;;;;;;;;;;;;5065677;28;19924;-71
2023/12/26 04:46:09;;;;;;;;;;;;;;;;;;5067736;28;19971;-71
2023/12/26 04:48:36;;;;;;;;;;;;;;;;;;5070642;28;19935;-71
2023/12/26 04:51:04;;;;;;;;;;;;;;;;;;5064524;28;19925;-71
2023/12/26 04:53:32;;;;;;;;;;;;;;;;;;5069504;28;19978;-71
2023/12/26 04:55:59;;;;;;;;;;;;;;;;;;5071176;28;19932;-71
2023/12/26 04:58:26;;;;;;;;;;;;;;;;;;5070051;28;19974;-72
2023/12/26 05:00:53;;;;;;;;;;;;;;;;;;5067819;28;19990;-72
2023/12/26 05:03:20;;;;;;;;;;;;;;;;;;5060058;28;19928;-72
2023/12/26 05:05:47;;;;;;;;;;;;;;;;;;5069076;28;19963;-72
2023/12/26 05:08:14;;;;;;;;;;;;;;;;;;5072254;28;19924;-72
2023/12/26 05:10:41;;;;;;;;;;;;;;;;;;5069922;28;20359;-72
2023/12/26 05:13:08;;;;;;;;;;;;;;;;;;5069177;28;19986;-72
2023/12/26 05:15:35;;;;;;;;;;;;;;;;;;5075783;28;19928;-72
2023/12/26 05:18:04;;;;;;;;;;;;;;;;;;5072064;28;19924;-72
2023/12/26 05:20:31;;;;;;;;;;;;;;;;;;5061863;28;19932;-71
2023/12/26 05:22:58;;;;;;;;;;;;;;;;;;5073018;28;20366;-69
2023/12/26 05:25:26;;;;;;;;;;;;;;;;;;5073867;28;19925;-70
2023/12/26 05:27:53;;;;;;;;;;;;;;;;;;5073286;28;20949;-71
2023/12/26 05:30:20;;;;;;;;;;;;;;;;;;5075449;28;19947;-70
2023/12/26 05:32:47;;;;;;;;;;;;;;;;;;5073075;28;20387;-72
2023/12/26 05:35:14;;;;;;;;;;;;;;;;;;5071693;28;20286;-71
2023/12/26 05:37:41;;;;;;;;;;;;;;;;;;5072288;28;19925;-70
2023/12/26 05:40:08;;;;;;;;;;;;;;;;;;5073390;28;19958;-71
2023/12/26 05:42:35;;;;;;;;;;;;;;;;;;5073443;28;20398;-70
2023/12/26 05:45:03;;;;;;;;;;;;;;;;;;5075270;28;20534;-70
2023/12/26 05:47:30;;;;;;;;;;;;;;;;;;5073745;28;19969;-70
2023/12/26 05:49:58;;;;;;;;;;;;;;;;;;5078588;28;20007;-70
2023/12/26 05:52:25;;;;;;;;;;;;;;;;;;5086475;28;19925;-72
2023/12/26 05:54:52;;;;;;;;;;;;;;;;;;5066306;28;20417;-69
2023/12/26 05:57:19;;;;;;;;;;;;;;;;;;5073660;28;19928;-70
2023/12/26 05:59:46;;;;;;;;;;;;;;;;;;5072780;28;20375;-70
2023/12/26 06:02:13;;;;;;;;;;;;;;;;;;5068856;28;20363;-69
2023/12/26 06:04:41;;;;;;;;;;;;;;;;;;5076879;28;20452;-70
2023/12/26 06:07:08;;;;;;;;;;;;;;;;;;5072063;28;20441;-69
2023/12/26 06:09:35;;;;;;;;;;;;;;;;;;5071904;28;20522;-70
2023/12/26 06:12:02;;;;;;;;;;;;;;;;;;5072570;28;20300;-71
2023/12/26 06:14:29;;;;;;;;;;;;;;;;;;5069504;28;19955;-71
2023/12/26 06:16:57;;;;;;;;;;;;;;;;;;5069855;28;19932;-70
2023/12/26 06:19:24;;;;;;;;;;;;;;;;;;5072464;28;19924;-71
2023/12/26 06:21:51;;;;;;;;;;;;;;;;;;5080405;28;19982;-70
2023/12/26 06:24:18;;;;;;;;;;;;;;;;;;5071176;28;19993;-71
2023/12/26 06:26:45;;;;;;;;;;;;;;;;;;5064089;28;20331;-71
2023/12/26 06:29:12;;;;;;;;;;;;;;;;;;5068083;28;20387;-71
2023/12/26 06:31:39;;;;;;;;;;;;;;;;;;5072139;28;19924;-71
2023/12/26 06:34:06;;;;;;;;;;;;;;;;;;5072676;28;19924;-71
2023/12/26 06:36:33;;;;;;;;;;;;;;;;;;5069862;28;20437;-71
2023/12/26 06:39:01;;;;;;;;;;;;;;;;;;5072939;28;20402;-71
2023/12/26 06:41:28;;;;;;;;;;;;;;;;;;5069840;28;19960;-71
2023/12/26 06:43:55;;;;;;;;;;;;;;;;;;5063677;28;19931;-71
2023/12/26 06:46:22;;;;;;;;;;;;;;;;;;5075839;28;19924;-71
2023/12/26 06:48:49;;;;;;;;;;;;;;;;;;5062269;28;19924;-71
2023/12/26 06:51:16;;;;;;;;;;;;;;;;;;5083491;28;19925;-70
2023/12/26 06:53:44;;;;;;;;;;;;;;;;;;5072548;28;19931;-71
2023/12/26 06:56:11;;;;;;;;;;;;;;;;;;5068246;28;20032;-71
2023/12/26 06:58:38;;;;;;;;;;;;;;;;;;5069510;28;19947;-71
2023/12/26 07:01:05;;;;;;;;;;;;;;;;;;5079849;28;19924;-71
2023/12/26 07:03:32;;;;;;;;;;;;;;;;;;5076832;28;20391;-71
2023/12/26 07:05:59;;;;;;;;;;;;;;;;;;5075809;28;19928;-71
2023/12/26 07:08:26;;;;;;;;;;;;;;;;;;5068525;28;19986;-71
2023/12/26 07:10:53;;;;;;;;;;;;;;;;;;5073464;28;19932;-71
2023/12/26 07:13:20;;;;;;;;;;;;;;;;;;5056635;28;19990;-71
2023/12/26 07:15:47;;;;;;;;;;;;;;;;;;5069398;28;19950;-70
2023/12/26 07:18:14;;;;;;;;;;;;;;;;;;5069487;28;19924;-72
2023/12/26 07:20:41;;;;;;;;;;;;;;;;;;5075282;28;19927;-72
2023/12/26 07:23:08;;;;;;;;;;;;;;;;;;5071048;28;19974;-71
2023/12/26 07:25:37;;;;;;;;;;;;;;;;;;5067562;28;20430;-70
2023/12/26 07:28:04;;;;;;;;;;;;;;;;;;5070486;28;19924;-71
2023/12/26 07:30:31;;;;;;;;;;;;;;;;;;5071674;28;19928;-72
2023/12/26 07:32:58;;;;;;;;;;;;;;;;;;5058714;28;19929;-71
2023/12/26 07:35:25;;;;;;;;;;;;;;;;;;5067907;28;19928;-71
2023/12/26 07:37:52;;;;;;;;;;;;;;;;;;5061238;28;19935;-72
2023/12/26 07:40:19;;;;;;;;;;;;;;;;;;5070454;28;19943;-72
2023/12/26 07:42:47;;;;;;;;;;;;;;;;;;5068786;28;19943;-72
2023/12/26 07:45:14;;;;;;;;;;;;;;;;;;5075487;28;19925;-72
2023/12/26 07:47:41;;;;;;;;;;;;;;;;;;5070030;28;19932;-71
2023/12/26 07:50:08;;;;;;;;;;;;;;;;;;5059944;28;19931;-72
2023/12/26 07:52:35;;;;;;;;;;;;;;;;;;5070749;28;19982;-71
2023/12/26 07:55:02;;;;;;;;;;;;;;;;;;5071072;28;19939;-72
2023/12/26 07:57:29;;;;;;;;;;;;;;;;;;5070619;28;19942;-72
2023/12/26 07:59:56;;;;;;;;;;;;;;;;;;5070569;28;19924;-72
2023/12/26 08:02:23;;;;;;;;;;;;;;;;;;5069228;28;19924;-70
2023/12/26 08:04:50;;;;;;;;;;;;;;;;;;5070580;28;20403;-71
2023/12/26 08:07:17;;;;;;;;;;;;;;;;;;5069942;28;19978;-70
2023/12/26 08:09:45;;;;;;;;;;;;;;;;;;5070594;28;20291;-70
2023/12/26 08:12:12;;;;;;;;;;;;;;;;;;5075797;28;19929;-71
2023/12/26 08:14:39;;;;;;;;;;;;;;;;;;5070810;28;19925;-71
2023/12/26 08:17:06;;;;;;;;;;;;;;;;;;5068067;28;20303;-71
2023/12/26 08:19:33;;;;;;;;;;;;;;;;;;5068703;28;20341;-71
2023/12/26 08:22:00;;;;;;;;;;;;;;;;;;5069025;28;19928;-70
2023/12/26 08:24:27;;;;;;;;;;;;;;;;;;5066983;28;19947;-69
2023/12/26 08:26:54;;;;;;;;;;;;;;;;;;5062699;28;19924;-71
2023/12/26 08:29:23;;;;;;;;;;;;;;;;;;5063898;28;19931;-70
2023/12/26 08:31:50;;;;;;;;;;;;;;;;;;5074341;28;20379;-70
2023/12/26 08:34:17;;;;;;;;;;;;;;;;;;5060461;28;19929;-72
2023/12/26 08:36:44;;;;;;;;;;;;;;;;;;5070938;28;20355;-72
2023/12/26 08:39:12;;;;;;;;;;;;;;;;;;5080133;28;19929;-72
2023/12/26 08:41:39;;;;;;;;;;;;;;;;;;5066005;28;19925;-72
2023/12/26 08:44:06;;;;;;;;;;;;;;;;;;5064210;28;19925;-72
2023/12/26 08:46:33;;;;;;;;;;;;;;;;;;5071186;28;19989;-72
2023/12/26 08:49:00;;;;;;;;;;;;;;;;;;5065910;28;19947;-72
2023/12/26 08:51:27;;;;;;;;;;;;;;;;;;5068806;28;20345;-72
2023/12/26 08:53:54;;;;;;;;;;;;;;;;;;5068145;28;19935;-72
2023/12/26 08:56:21;;;;;;;;;;;;;;;;;;5067850;28;20019;-72
2023/12/26 08:58:48;;;;;;;;;;;;;;;;;;5064782;28;19925;-70
2023/12/26 09:01:15;;;;;;;;;;;;;;;;;;5066535;28;19931;-71
2023/12/26 09:03:42;;;;;;;;;;;;;;;;;;5062286;28;20366;-71
2023/12/26 09:06:09;;;;;;;;;;;;;;;;;;5063398;28;19985;-71
2023/12/26 09:08:36;;;;;;;;;;;;;;;;;;5069209;28;19924;-71
2023/12/26 09:11:03;;;;;;;;;;;;;;;;;;5073782;28;20424;-71
2023/12/26 09:13:31;;;;;;;;;;;;;;;;;;5077583;28;19933;-71
2023/12/26 09:15:58;;;;;;;;;;;;;;;;;;5067767;28;19928;-71
2023/12/26 09:18:25;;;;;;;;;;;;;;;;;;5066466;28;19993;-72
2023/12/26 09:20:52;;;;;;;;;;;;;;;;;;5067274;28;19925;-72
2023/12/26 09:23:20;;;;;;;;;;;;;;;;;;5070372;28;19932;-71
2023/12/26 09:25:47;;;;;;;;;;;;;;;;;;5071905;28;20011;-71
2023/12/26 09:28:14;;;;;;;;;;;;;;;;;;5073707;28;19924;-71
2023/12/26 09:30:41;;;;;;;;;;;;;;;;;;5066241;28;19978;-72
2023/12/26 09:33:08;;;;;;;;;;;;;;;;;;5062165;28;19939;-72
2023/12/26 09:35:35;;;;;;;;;;;;;;;;;;5062870;28;19930;-72
2023/12/26 09:38:02;;;;;;;;;;;;;;;;;;5066423;28;20033;-72
2023/12/26 09:40:29;;;;;;;;;;;;;;;;;;5072502;28;19925;-72
2023/12/26 09:42:56;;;;;;;;;;;;;;;;;;5072004;28;19928;-72
2023/12/26 09:45:24;;;;;;;;;;;;;;;;;;5074322;28;19924;-72
2023/12/26 09:47:51;;;;;;;;;;;;;;;;;;5070146;28;20331;-71
2023/12/26 09:50:18;;;;;;;;;;;;;;;;;;5062266;28;19925;-71
2023/12/26 09:52:45;;;;;;;;;;;;;;;;;;5070857;28;20359;-72
2023/12/26 09:55:12;;;;;;;;;;;;;;;;;;5067142;28;20351;-72
2023/12/26 09:57:40;;;;;;;;;;;;;;;;;;5069035;28;19933;-72
2023/12/26 10:00:07;;;;;;;;;;;;;;;;;;5067798;28;19925;-70
2023/12/26 10:02:34;;;;;;;;;;;;;;;;;;5068487;28;19925;-71
2023/12/26 10:05:01;;;;;;;;;;;;;;;;;;5064649;28;19925;-71
2023/12/26 10:07:28;;;;;;;;;;;;;;;;;;5067878;28;19928;-71
2023/12/26 10:09:55;;;;;;;;;;;;;;;;;;5060994;28;20033;-72
2023/12/26 10:12:22;;;;;;;;;;;;;;;;;;5070145;28;19951;-72
2023/12/26 10:14:49;;;;;;;;;;;;;;;;;;5067660;28;19924;-72
2023/12/26 10:17:17;;;;;;;;;;;;;;;;;;5062959;28;19978;-72
2023/12/26 10:19:44;;;;;;;;;;;;;;;;;;5068135;28;19929;-72
2023/12/26 10:22:11;;;;;;;;;;;;;;;;;;5069709;28;19924;-71
2023/12/26 10:24:38;;;;;;;;;;;;;;;;;;5069358;28;19932;-72
2023/12/26 10:27:05;;;;;;;;;;;;;;;;;;5069454;28;19986;-72
2023/12/26 10:29:32;;;;;;;;;;;;;;;;;;5064487;28;19925;-72
2023/12/26 10:31:59;;;;;;;;;;;;;;;;;;5069012;28;20061;-72
2023/12/26 10:34:26;;;;;;;;;;;;;;;;;;5061025;28;20002;-72
2023/12/26 10:36:53;;;;;;;;;;;;;;;;;;5061033;28;19932;-72
2023/12/26 10:39:20;;;;;;;;;;;;;;;;;;5063265;28;19929;-72
2023/12/26 10:41:47;;;;;;;;;;;;;;;;;;5067155;28;19925;-72
2023/12/26 10:44:14;;;;;;;;;;;;;;;;;;5065792;28;19986;-72
2023/12/26 10:46:42;;;;;;;;;;;;;;;;;;5068751;28;20336;-71
2023/12/26 10:49:09;;;;;;;;;;;;;;;;;;5071358;28;19939;-71
2023/12/26 10:51:36;;;;;;;;;;;;;;;;;;5068010;28;20387;-72
2023/12/26 10:54:03;;;;;;;;;;;;;;;;;;5070488;28;19970;-71
2023/12/26 10:56:30;;;;;;;;;;;;;;;;;;5066418;28;20591;-71
2023/12/26 10:58:57;;;;;;;;;;;;;;;;;;5064383;28;19924;-72
2023/12/26 11:01:23;;;;;;;;;;;;;;;;;;5069609;28;19974;-72
2023/12/26 11:03:49;;;;;;;;;;;;;;;;;;5069576;28;19940;-71
2023/12/26 11:06:16;;;;;;;;;;;;;;;;;;5065462;28;19955;-72
2023/12/26 11:08:42;;;;;;;;;;;;;;;;;;5062755;28;20256;-72
2023/12/26 11:11:08;;;;;;;;;;;;;;;;;;5068984;28;20363;-71
2023/12/26 11:13:35;;;;;;;;;;;;;;;;;;5061185;28;19924;-72
2023/12/26 11:16:01;;;;;;;;;;;;;;;;;;5063352;28;19929;-72
2023/12/26 11:18:27;;;;;;;;;;;;;;;;;;5057488;28;19936;-72
2023/12/26 11:20:54;;;;;;;;;;;;;;;;;;5060335;28;19989;-71
2023/12/26 11:23:20;;;;;;;;;;;;;;;;;;5060262;28;20049;-70
2023/12/26 11:25:46;;;;;;;;;;;;;;;;;;5066041;28;20302;-70
2023/12/26 11:28:13;;;;;;;;;;;;;;;;;;5065408;28;20088;-71
2023/12/26 11:30:39;;;;;;;;;;;;;;;;;;5064629;28;20362;-70
2023/12/26 11:33:05;;;;;;;;;;;;;;;;;;5055293;28;19971;-69
2023/12/26 11:35:32;;;;;;;;;;;;;;;;;;5061963;28;19931;-71
2023/12/26 11:37:58;;;;;;;;;;;;;;;;;;5070072;28;19940;-70
2023/12/26 11:40:24;;;;;;;;;;;;;;;;;;5069897;28;19932;-71
2023/12/26 11:42:51;;;;;;;;;;;;;;;;;;5070946;28;19928;-71
2023/12/26 11:45:17;;;;;;;;;;;;;;;;;;5060834;28;19956;-71
2023/12/26 11:47:43;;;;;;;;;;;;;;;;;;5069199;28;19929;-70
2023/12/26 11:50:10;;;;;;;;;;;;;;;;;;5068887;28;20435;-71
2023/12/26 11:52:36;;;;;;;;;;;;;;;;;;5065277;28;19937;-70
2023/12/26 11:55:02;;;;;;;;;;;;;;;;;;5068462;28;19931;-72
2023/12/26 11:57:29;;;;;;;;;;;;;;;;;;5068682;28;19925;-71
2023/12/26 11:59:55;;;;;;;;;;;;;;;;;;5072195;28;20429;-71
2023/12/26 12:02:21;;;;;;;;;;;;;;;;;;5069808;28;20326;-70
2023/12/26 12:04:48;;;;;;;;;;;;;;;;;;5071024;28;20303;-69
2023/12/26 12:07:14;;;;;;;;;;;;;;;;;;5063204;28;19979;-69
2023/12/26 12:09:40;;;;;;;;;;;;;;;;;;5067867;28;19928;-70
2023/12/26 12:12:08;;;;;;;;;;;;;;;;;;5071608;28;20319;-70
2023/12/26 12:14:34;;;;;;;;;;;;;;;;;;5068578;28;19974;-70
2023/12/26 12:17:00;;;;;;;;;;;;;;;;;;5069902;28;19932;-70
2023/12/26 12:19:27;;;;;;;;;;;;;;;;;;5052438;28;19931;-73
2023/12/26 12:21:53;;;;;;;;;;;;;;;;;;5058478;28;19940;-72
2023/12/26 12:24:19;;;;;;;;;;;;;;;;;;5060755;28;19932;-72
2023/12/26 12:26:46;;;;;;;;;;;;;;;;;;5067850;28;20039;-73
2023/12/26 12:29:12;;;;;;;;;;;;;;;;;;5059613;28;19968;-73
2023/12/26 12:31:38;;;;;;;;;;;;;;;;;;5060976;28;19928;-72
2023/12/26 12:34:05;;;;;;;;;;;;;;;;;;5059926;28;20424;-74
2023/12/26 12:36:31;;;;;;;;;;;;;;;;;;5059648;28;20394;-72
2023/12/26 12:38:57;;;;;;;;;;;;;;;;;;5060168;28;19939;-75
2023/12/26 12:41:24;;;;;;;;;;;;;;;;;;5060161;28;20062;-75
2023/12/26 12:43:50;;;;;;;;;;;;;;;;;;5062221;28;19928;-74
2023/12/26 12:46:16;;;;;;;;;;;;;;;;;;5060658;28;19925;-74
2023/12/26 12:48:43;;;;;;;;;;;;;;;;;;5061173;28;20447;-75
2023/12/26 12:51:09;;;;;;;;;;;;;;;;;;5066901;28;20080;-74
2023/12/26 12:53:35;;;;;;;;;;;;;;;;;;5064583;28;19928;-75
2023/12/26 12:56:02;;;;;;;;;;;;;;;;;;5063978;28;19932;-75
2023/12/26 12:58:29;;;;;;;;;;;;;;;;;;5062564;28;19932;-73
2023/12/26 13:00:56;;;;;;;;;;;;;;;;;;5066374;28;20426;-76
2023/12/26 13:03:26;;;;;;;;;;;;;;;;;;5065586;28;20015;-75
2023/12/26 13:05:53;;;;;;;;;;;;;;;;;;5061762;28;19929;-75
2023/12/26 13:08:22;;;;;;;;;;;;;;;;;;5068579;28;19925;-76
2023/12/26 13:10:49;;;;;;;;;;;;;;;;;;5066415;28;19933;-76
2023/12/26 13:13:15;;;;;;;;;;;;;;;;;;5066631;28;19971;-75
2023/12/26 13:15:41;;;;;;;;;;;;;;;;;;5063279;28;20018;-75
2023/12/26 13:18:10;;;;;;;;;;;;;;;;;;5066582;28;20393;-73
2023/12/26 13:20:36;;;;;;;;;;;;;;;;;;5058565;28;19933;-75
2023/12/26 13:23:02;;;;;;;;;;;;;;;;;;5061920;28;20419;-75
2023/12/26 13:25:29;;;;;;;;;;;;;;;;;;5062244;28;20379;-74
2023/12/26 13:27:55;;;;;;;;;;;;;;;;;;5058486;28;19936;-74
2023/12/26 13:30:21;;;;;;;;;;;;;;;;;;5069520;28;19928;-74
2023/12/26 13:32:48;;;;;;;;;;;;;;;;;;5067075;28;19924;-74
2023/12/26 13:35:14;;;;;;;;;;;;;;;;;;5061548;28;19940;-74
2023/12/26 13:37:40;;;;;;;;;;;;;;;;;;5059988;28;19932;-75
2023/12/26 13:40:07;;;;;;;;;;;;;;;;;;5063462;28;19932;-74
2023/12/26 13:42:33;;;;;;;;;;;;;;;;;;5070288;28;19970;-75
2023/12/26 13:44:59;;;;;;;;;;;;;;;;;;5062062;28;19928;-75
2023/12/26 13:47:26;;;;;;;;;;;;;;;;;;5066976;28;19955;-75
2023/12/26 13:49:52;;;;;;;;;;;;;;;;;;5059938;28;19932;-77
2023/12/26 13:52:18;;;;;;;;;;;;;;;;;;5069935;28;19928;-78
2023/12/26 13:54:45;;;;;;;;;;;;;;;;;;5058803;28;19994;-78
2023/12/26 13:57:11;;;;;;;;;;;;;;;;;;5062727;28;19981;-77
2023/12/26 13:59:38;;;;;;;;;;;;;;;;;;5066478;28;19924;-77
2023/12/26 14:02:06;;;;;;;;;;;;;;;;;;5057208;28;20080;-78
2023/12/26 14:04:33;;;;;;;;;;;;;;;;;;5058181;28;20017;-78
2023/12/26 14:07:00;;;;;;;;;;;;;;;;;;5056780;28;19925;-78
2023/12/26 14:09:27;;;;;;;;;;;;;;;;;;5056199;28;20004;-78
2023/12/26 14:11:54;;;;;;;;;;;;;;;;;;5066316;28;19971;-77
2023/12/26 14:14:21;;;;;;;;;;;;;;;;;;5138995;22;19990;-77
2023/12/26 14:16:48;;;;;;;;;;;;;;;;;;5045248;28;19925;-82
2023/12/26 14:19:15;;;;;;;;;;;;;;;;;;5063022;28;19928;-79
2023/12/26 14:21:42;;;;;;;;;;;;;;;;;;5066703;28;20418;-80
2023/12/26 14:24:10;;;;;;;;;;;;;;;;;;5062607;28;20025;-79
2023/12/26 14:26:37;;;;;;;;;;;;;;;;;;5064504;28;20272;-79
2023/12/26 14:29:04;;;;;;;;;;;;;;;;;;5065397;28;19932;-80
2023/12/26 14:31:31;;;;;;;;;;;;;;;;;;5065162;28;21558;-79
2023/12/26 14:33:58;;;;;;;;;;;;;;;;;;5065607;28;20379;-79
2023/12/26 14:36:25;;;;;;;;;;;;;;;;;;5064789;28;20283;-79
2023/12/26 14:38:52;;;;;;;;;;;;;;;;;;5065610;28;19924;-79
2023/12/26 14:41:19;;;;;;;;;;;;;;;;;;5068547;28;20320;-77
2023/12/26 14:43:46;;;;;;;;;;;;;;;;;;5067032;28;19928;-77
2023/12/26 14:46:14;;;;;;;;;;;;;;;;;;5061732;28;19925;-79
2023/12/26 14:48:41;;;;;;;;;;;;;;;;;;5059992;28;19925;-78
2023/12/26 14:51:08;;;;;;;;;;;;;;;;;;5068175;28;19931;-76
2023/12/26 14:53:35;;;;;;;;;;;;;;;;;;5059853;28;19951;-77
2023/12/26 14:56:03;;;;;;;;;;;;;;;;;;5068495;28;19925;-78
2023/12/26 14:58:30;;;;;;;;;;;;;;;;;;5061078;28;20038;-79
2023/12/26 15:00:57;;;;;;;;;;;;;;;;;;5061329;28;19928;-77
2023/12/26 15:03:25;;;;;;;;;;;;;;;;;;5068206;28;20087;-79
2023/12/26 15:05:53;;;;;;;;;;;;;;;;;;5068069;28;19977;-77
2023/12/26 15:08:20;;;;;;;;;;;;;;;;;;5070432;28;19924;-77
2023/12/26 15:10:47;;;;;;;;;;;;;;;;;;5069600;28;19928;-78
2023/12/26 15:13:14;;;;;;;;;;;;;;;;;;5067875;28;19951;-76
2023/12/26 15:15:41;;;;;;;;;;;;;;;;;;5069336;28;19929;-78
2023/12/26 15:18:09;;;;;;;;;;;;;;;;;;5059488;28;19925;-78
2023/12/26 15:20:36;;;;;;;;;;;;;;;;;;5066136;28;19925;-78
2023/12/26 15:23:04;;;;;;;;;;;;;;;;;;5060471;28;19928;-80
2023/12/26 15:25:31;;;;;;;;;;;;;;;;;;5051112;28;19928;-79
2023/12/26 15:27:58;;;;;;;;;;;;;;;;;;5064206;28;19931;-79
2023/12/26 15:30:25;;;;;;;;;;;;;;;;;;5056281;28;19925;-77
2023/12/26 15:32:51;;;;;;;;;;;;;;;;;;5054966;28;20065;-75
2023/12/26 15:35:18;;;;;;;;;;;;;;;;;;5068611;28;19931;-71
2023/12/26 15:37:45;;;;;;;;;;;;;;;;;;5058500;28;20109;-71
2023/12/26 15:40:13;;;;;;;;;;;;;;;;;;5061958;28;19994;-71
2023/12/26 15:42:42;;;;;;;;;;;;;;;;;;5063363;28;20027;-70
2023/12/26 15:45:09;;;;;;;;;;;;;;;;;;5061668;28;19970;-70
2023/12/26 15:47:36;;;;;;;;;;;;;;;;;;5060888;28;20545;-69
2023/12/26 15:50:03;;;;;;;;;;;;;;;;;;5054373;28;20380;-71
2023/12/26 15:52:30;;;;;;;;;;;;;;;;;;5057180;28;19963;-70
2023/12/26 15:54:57;;;;;;;;;;;;;;;;;;5050503;28;20035;-71
2023/12/26 15:57:24;;;;;;;;;;;;;;;;;;5052972;28;19929;-70
2023/12/26 15:59:51;;;;;;;;;;;;;;;;;;5055574;28;19986;-71
2023/12/26 16:02:19;;;;;;;;;;;;;;;;;;5057171;28;19985;-71
2023/12/26 16:04:46;;;;;;;;;;;;;;;;;;5056822;28;19925;-70
2023/12/26 16:07:13;;;;;;;;;;;;;;;;;;5050280;28;19931;-71
2023/12/26 16:09:40;;;;;;;;;;;;;;;;;;5051874;28;19932;-71
2023/12/26 16:12:07;;;;;;;;;;;;;;;;;;5060133;28;19924;-72
2023/12/26 16:14:34;;;;;;;;;;;;;;;;;;5051453;28;19940;-71
2023/12/26 16:17:01;;;;;;;;;;;;;;;;;;5056197;28;20335;-72
2023/12/26 16:19:28;;;;;;;;;;;;;;;;;;5056225;28;20442;-71
2023/12/26 16:21:55;;;;;;;;;;;;;;;;;;5058694;28;20325;-71
2023/12/26 16:24:22;;;;;;;;;;;;;;;;;;5058022;28;19928;-71
2023/12/26 16:26:49;;;;;;;;;;;;;;;;;;5055681;28;19924;-71
2023/12/26 16:29:18;;;;;;;;;;;;;;;;;;5054010;28;19928;-71
2023/12/26 16:31:46;;;;;;;;;;;;;;;;;;5051829;28;19935;-71
2023/12/26 16:34:13;;;;;;;;;;;;;;;;;;5058234;28;19924;-72
2023/12/26 16:36:40;;;;;;;;;;;;;;;;;;5058456;28;19932;-72
2023/12/26 16:39:07;;;;;;;;;;;;;;;;;;5056177;28;19932;-72
2023/12/26 16:41:34;;;;;;;;;;;;;;;;;;5061767;28;19982;-71
2023/12/26 16:44:02;;;;;;;;;;;;;;;;;;5061131;28;19979;-70